Flight Track Log - Related Links

Times and Time Zones

All times are in EDT time to prevent confusion due to time zone crossing. See the CTL13 flight status page for this flight to view local times or setup timezone preferences in your user account.

Time Position Orientation Groundspeed Altitude Reporting Facility
EDT Latitude Longitude Course Direction KTS MPH feet Rate Location/Type
Wed 08:21:09 PM 39.9167 -86.2833 15° North 163 188 2,600  Level Indianapolis TRACON
Wed 08:21:57 PM 39.9333 -86.3167 303° West 152 175 3,200 727 Climbing Indianapolis TRACON
Wed 08:22:15 PM 39.9481 -86.3364 314° West 150 173 3,400 750 Climbing Chicago Center
Wed 08:23:17 PM 39.9778 -86.3744 316° Northwest 149 171 4,200 634 Climbing Chicago Center
Wed 08:24:18 PM 40.0075 -86.4119 316° Northwest 148 170 4,700 488 Climbing Indianapolis Center
Wed 08:25:20 PM 40.0392 -86.4486 318° Northwest 150 173 5,200 537 Climbing Indianapolis Center
Wed 08:26:00 PM 40.0499 -86.2037 15° North  Level FlightAware Approximate
Wed 08:26:21 PM 40.0711 -86.4867 318° Northwest 152 175 5,800  Level Indianapolis Center
Wed 08:27:23 PM 40.1017 -86.5253 316° Northwest 152 175 6,100 145 Climbing Indianapolis Center
Wed 08:28:25 PM 40.1367 -86.5639 320° Northwest 158 182 6,100 -49 Level Indianapolis Center
Wed 08:29:26 PM 40.1717 -86.6039 319° Northwest 163 188 6,000  Descending Indianapolis Center
Wed 08:30:28 PM 40.2042 -86.6411 319° Northwest 160 184 6,100  Climbing Indianapolis Center
Wed 08:31:33 PM 40.2397 -86.6850 317° Northwest 152 175 6,000  Descending Chicago Center
Wed 08:32:35 PM 40.2728 -86.7281 315° West 151 174 6,100  Climbing Chicago Center
Wed 08:33:35 PM 40.3025 -86.7653 316° Northwest 152 175 6,000  Descending Chicago Center
Wed 08:34:39 PM 40.3353 -86.7981 323° Northwest 153 176 6,100 49 Climbing Chicago Center
Wed 08:35:37 PM 40.3664 -86.8403 314° West 153 176 6,100 -51 Level Chicago Center
Wed 08:36:37 PM 40.3983 -86.8806 316° Northwest 152 175 6,000 -47 Descending Chicago Center
Wed 08:37:44 PM 40.4344 -86.9214 319° Northwest 152 175 6,000  Level Chicago Center
Wed 08:38:45 PM 40.4642 -86.9589 316° Northwest 154 177 6,000  Level Chicago Center
Wed 08:39:45 PM 40.4961 -86.9992 316° Northwest 152 175 6,000  Level Chicago Center
Wed 08:40:51 PM 40.5292 -87.0331 322° Northwest 152 175 6,000  Level Chicago Center
Wed 08:41:53 PM 40.5614 -87.0719 317° Northwest 154 177 6,000  Level Chicago Center
Wed 08:42:55 PM 40.6103 -87.0958 340° North 160 184 6,000  Level Chicago Center
Wed 08:43:57 PM 40.6506 -87.1172 338° Northwest 161 185 6,000  Level Chicago Center
Wed 08:44:59 PM 40.6900 -87.1392 337° Northwest 156 180 6,000  Level Chicago Center
Wed 08:46:01 PM 40.7308 -87.1617 337° Northwest 159 183 6,000  Level Chicago Center
Wed 08:47:03 PM 40.7719 -87.1853 336° Northwest 161 185 6,000  Level Chicago Center
Wed 08:48:05 PM 40.8217 -87.2106 339° North 160 184 6,000 48 Level Chicago Center
Wed 08:49:07 PM 40.8617 -87.2325 337° Northwest 157 181 6,100 48 Climbing Chicago Center
Wed 08:50:09 PM 40.9019 -87.2547 337° Northwest 158 182 6,100 -290 Level Chicago Center
Wed 08:51:11 PM 40.9456 -87.2767 339° North 164 189 5,500 -677 Descending Chicago Center
Wed 08:52:13 PM 40.9903 -87.3011 338° Northwest 171 197 4,700 -726 Descending Chicago Center
Wed 08:53:15 PM 41.0453 -87.3297 339° North 175 201 4,000 -387 Descending Chicago Center
Wed 08:54:17 PM 41.0889 -87.3542 337° Northwest 175 201 3,900  Descending Chicago Center
Wed 08:55:19 PM 41.1297 -87.3764 338° Northwest 168 193 4,000 48 Climbing Chicago Center
Wed 08:56:21 PM 41.1703 -87.3986 338° Northwest 163 188 4,000  Level Chicago Center
Wed 08:57:23 PM 41.2111 -87.4200 338° Northwest 160 184 4,000  Level Chicago Center
Wed 08:58:25 PM 41.2608 -87.4444 340° North 160 184 4,000 -48 Level Chicago Center
Wed 08:59:27 PM 41.2867 -87.4222 33° Northeast 176 203 3,900  Descending Chicago Center
Wed 09:00:29 PM 41.2492 -87.3969 153° Southeast 163 188 4,000 48 Climbing Chicago Center
Wed 09:01:31 PM 41.2131 -87.3744 155° Southeast 152 175 4,000  Level Chicago Center
Wed 09:02:33 PM 41.1769 -87.3536 157° South 146 168 4,000 -48 Level Chicago Center
Wed 09:03:35 PM 41.1461 -87.3344 155° Southeast 136 157 3,900  Descending Chicago Center
Wed 09:04:37 PM 41.1683 -87.3592 320° Northwest 138 159 4,000 48 Climbing Chicago Center
Wed 09:05:39 PM 41.2150 -87.3614 358° North 158 182 4,000  Level Chicago Center
Wed 09:06:41 PM 41.2639 -87.3669 355° North 167 192 4,000 -48 Level Chicago Center
Wed 09:07:43 PM 41.3122 -87.3714 356° North 172 198 3,900  Descending Chicago Center
Wed 09:08:45 PM 41.3603 -87.3772 355° North 174 200 4,000  Climbing Chicago Center
Wed 09:09:46 PM 41.4131 -87.4028 340° North 180 207 3,900  Descending Chicago Center
Wed 09:10:48 PM 41.4547 -87.4319 332° Northwest 174 200 4,000  Climbing Chicago Center
Wed 09:11:50 PM 41.4953 -87.4611 332° Northwest 170 196 3,900  Descending Chicago Center
Wed 09:12:52 PM 41.5353 -87.4908 331° Northwest 168 193 4,000 48 Climbing Chicago Center
Wed 09:13:54 PM 41.5753 -87.5219 330° Northwest 167 192 4,000 -48 Level Chicago Center
Wed 09:14:56 PM 41.6239 -87.5567 332° Northwest 167 192 3,900 -48 Descending Chicago Center
Wed 09:15:58 PM 41.6642 -87.5847 333° Northwest 166 191 3,900 -537 Level Chicago Center
Wed 09:16:59 PM 41.6983 -87.6308 315° West 182 209 2,800 -970 Descending Chicago Center
Wed 09:17:37 PM 41.7167 -87.6667 304° West 168 193 2,300 -667 Descending Chicago TRACON
Wed 09:18:38 PM 41.7667 -87.6833 346° North 168 193 1,700 -574 Descending Chicago TRACON
Wed 09:19:32 PM 41.8000 -87.7167 323° Northwest 144 166 1,200 -556 Descending Chicago TRACON

Login

Don't have an account? Register now (free) for customized features, flight alerts, and more!